createdAt,value
2019-05-29T00:01:27.293Z,97080.50
2019-05-29T00:03:54.759Z,97072.68
2019-05-29T00:06:22.219Z,97071.43
2019-05-29T00:08:49.706Z,97072.00
2019-05-29T00:11:18.222Z,97077.61
2019-05-29T00:13:45.872Z,97067.87
2019-05-29T00:16:14.420Z,97071.55
2019-05-29T00:18:41.724Z,97071.10
2019-05-29T00:21:11.542Z,97070.43
2019-05-29T00:23:36.821Z,97087.92
2019-05-29T00:26:04.309Z,97087.98
2019-05-29T00:28:31.774Z,97097.97
2019-05-29T00:30:59.271Z,97090.70
2019-05-29T00:33:26.885Z,97092.59
2019-05-29T00:35:54.418Z,97091.70
2019-05-29T00:38:21.878Z,97093.50
2019-05-29T00:40:49.348Z,97096.16
2019-05-29T00:43:17.564Z,97095.58
2019-05-29T00:45:44.412Z,97096.32
2019-05-29T00:48:11.869Z,97096.05
2019-05-29T00:50:39.328Z,97101.48
2019-05-29T00:53:08.039Z,97103.96
2019-05-29T00:55:34.310Z,97108.64
2019-05-29T00:58:01.800Z,97111.46
2019-05-29T01:00:29.295Z,97107.27
2019-05-29T01:02:56.783Z,97113.07
2019-05-29T01:05:24.273Z,97114.13
2019-05-29T01:07:51.787Z,97114.55
2019-05-29T01:10:19.254Z,97119.66
2019-05-29T01:12:46.701Z,97118.80
2019-05-29T01:15:15.375Z,97124.64
2019-05-29T01:17:41.740Z,97126.79
2019-05-29T01:20:09.244Z,97119.07
2019-05-29T01:22:36.717Z,97119.91
2019-05-29T01:25:05.035Z,97117.66
2019-05-29T01:27:32.525Z,97122.84
2019-05-29T01:30:00.019Z,97120.24
2019-05-29T01:32:27.470Z,97121.81
2019-05-29T01:34:54.937Z,97118.19
2019-05-29T01:37:22.418Z,97131.02
2019-05-29T01:39:49.875Z,97120.95
2019-05-29T01:42:17.352Z,97120.66
2019-05-29T01:44:44.820Z,97121.56
2019-05-29T01:47:12.272Z,97125.20
2019-05-29T01:49:40.518Z,97115.30
2019-05-29T01:52:08.118Z,97117.45
2019-05-29T01:54:35.585Z,97125.52
2019-05-29T01:57:03.099Z,97115.95
2019-05-29T01:59:30.607Z,97124.95
2019-05-29T02:01:58.074Z,97122.11
2019-05-29T02:04:25.531Z,97118.66
2019-05-29T02:06:52.997Z,97123.73
2019-05-29T02:09:20.518Z,97125.20
2019-05-29T02:11:47.975Z,97125.92
2019-05-29T02:14:16.372Z,97129.61
2019-05-29T02:16:42.967Z,97131.97
2019-05-29T02:19:10.457Z,97130.90
2019-05-29T02:21:37.918Z,97139.70
2019-05-29T02:24:05.425Z,97141.67
2019-05-29T02:26:32.875Z,97147.48
2019-05-29T02:29:00.345Z,97147.80
2019-05-29T02:31:28.871Z,97145.08
2019-05-29T02:33:55.314Z,97145.28
2019-05-29T02:36:24.530Z,97149.55
2019-05-29T02:38:50.895Z,97146.40
2019-05-29T02:41:19.144Z,97152.63
2019-05-29T02:43:46.655Z,97148.17
2019-05-29T02:46:14.119Z,97148.77
2019-05-29T02:48:41.682Z,97141.36
2019-05-29T02:51:12.178Z,97141.63
2019-05-29T02:53:37.091Z,97143.27
2019-05-29T02:56:04.575Z,97145.42
2019-05-29T02:58:32.156Z,97151.42
2019-05-29T03:00:59.645Z,97149.91
2019-05-29T03:03:29.548Z,97147.60
2019-05-29T03:05:55.555Z,97160.88
2019-05-29T03:08:24.709Z,97163.95
2019-05-29T03:10:50.605Z,97167.73
2019-05-29T03:13:18.083Z,97161.51
2019-05-29T03:15:45.544Z,97168.33
2019-05-29T03:18:13.051Z,97161.72
2019-05-29T03:20:40.511Z,97162.84
2019-05-29T03:23:07.993Z,97168.55
2019-05-29T03:25:36.931Z,97172.94
2019-05-29T03:28:02.978Z,97171.28
2019-05-29T03:30:36.807Z,97179.31
2019-05-29T03:32:58.011Z,97175.64
2019-05-29T03:35:28.182Z,97174.70
2019-05-29T03:37:53.072Z,97172.94
2019-05-29T03:40:20.554Z,97178.70
2019-05-29T03:42:48.028Z,97183.86
2019-05-29T03:45:15.583Z,97180.97
2019-05-29T03:47:43.059Z,97176.38
2019-05-29T03:50:10.534Z,97185.50
2019-05-29T03:52:38.930Z,97190.31
2019-05-29T03:55:05.533Z,97186.38
2019-05-29T03:57:33.868Z,97189.50
2019-05-29T04:00:00.541Z,97187.30
2019-05-29T04:02:28.726Z,97196.16
2019-05-29T04:04:55.716Z,97195.31
2019-05-29T04:07:23.197Z,97201.57
2019-05-29T04:09:50.645Z,97196.58
2019-05-29T04:12:19.156Z,97196.97
2019-05-29T04:14:45.639Z,97203.30
2019-05-29T04:17:13.102Z,97202.47
2019-05-29T04:19:40.586Z,97207.83
2019-05-29T04:22:08.913Z,97206.13
2019-05-29T04:24:38.063Z,97207.12
2019-05-29T04:27:03.889Z,97215.31
2019-05-29T04:29:32.016Z,97216.62
2019-05-29T04:31:58.883Z,97216.43
2019-05-29T04:34:26.370Z,97218.95
2019-05-29T04:36:53.859Z,97226.57
2019-05-29T04:39:22.586Z,97229.22
2019-05-29T04:41:50.595Z,97230.09
2019-05-29T04:44:17.603Z,97231.64
2019-05-29T04:46:44.640Z,97233.52
2019-05-29T04:49:12.120Z,97234.52
2019-05-29T04:51:40.022Z,97242.53
2019-05-29T04:54:06.677Z,97246.94
2019-05-29T04:56:34.677Z,97249.92
2019-05-29T04:59:00.836Z,97250.25
2019-05-29T05:01:29.019Z,97254.77
2019-05-29T05:03:55.002Z,97251.63
2019-05-29T05:06:21.984Z,97252.41
2019-05-29T05:08:49.194Z,97258.25
2019-05-29T05:11:16.230Z,97264.91
2019-05-29T05:13:43.260Z,97261.97
2019-05-29T05:16:10.343Z,97269.91
2019-05-29T05:18:37.956Z,97272.31
2019-05-29T05:21:04.543Z,97277.78
2019-05-29T05:23:31.977Z,97277.36
2019-05-29T05:25:58.818Z,97282.63
2019-05-29T05:28:25.887Z,97278.06
2019-05-29T05:30:52.889Z,97285.80
2019-05-29T05:33:19.960Z,97289.59
2019-05-29T05:35:47.000Z,97295.23
2019-05-29T05:38:14.016Z,97300.75
2019-05-29T05:40:43.014Z,97299.82
2019-05-29T05:43:21.207Z,97296.71
2019-05-29T05:45:35.224Z,97305.86
2019-05-29T05:48:02.254Z,97303.52
2019-05-29T05:50:29.286Z,97308.26
2019-05-29T05:52:56.309Z,97305.98
2019-05-29T05:55:23.471Z,97310.27
2019-05-29T05:57:50.564Z,97311.75
2019-05-29T06:00:17.638Z,97310.45
2019-05-29T06:02:44.694Z,97309.40
2019-05-29T06:05:11.709Z,97308.04
2019-05-29T06:07:38.725Z,97303.95
2019-05-29T06:10:05.800Z,97313.48
2019-05-29T06:12:34.384Z,97318.98
2019-05-29T06:15:00.406Z,97323.63
2019-05-29T06:17:27.520Z,97323.00
2019-05-29T06:19:54.587Z,97327.09
2019-05-29T06:22:21.731Z,97318.09
2019-05-29T06:24:49.074Z,97319.16
2019-05-29T06:27:16.115Z,97323.61
2019-05-29T06:29:43.601Z,97324.52
2019-05-29T06:32:10.153Z,97321.08
2019-05-29T06:34:37.529Z,97327.19
2019-05-29T06:37:04.314Z,97330.12
2019-05-29T06:39:31.361Z,97326.62
2019-05-29T06:41:58.354Z,97322.88
2019-05-29T06:44:25.365Z,97328.29
2019-05-29T06:46:52.357Z,97325.44
2019-05-29T06:49:19.359Z,97334.64
2019-05-29T06:51:47.464Z,97334.84
2019-05-29T06:54:13.475Z,97334.54
2019-05-29T06:56:41.752Z,97338.95
2019-05-29T06:59:07.937Z,97339.98
2019-05-29T07:01:35.276Z,97341.52
2019-05-29T07:06:46.790Z,97348.73
2019-05-29T07:09:13.406Z,97345.70
2019-05-29T07:11:41.336Z,97345.16
2019-05-29T07:14:07.605Z,97351.44
2019-05-29T07:16:46.409Z,97359.14
2019-05-29T07:19:25.331Z,97355.55
2019-05-29T07:21:28.792Z,97359.16
2019-05-29T07:23:56.048Z,97360.90
2019-05-29T07:26:23.289Z,97358.97
2019-05-29T07:29:07.537Z,97360.33
2019-05-29T07:31:17.485Z,97359.88
2019-05-29T07:33:45.269Z,97364.17
2019-05-29T07:36:11.586Z,97373.52
2019-05-29T07:38:39.640Z,97373.23
2019-05-29T07:41:06.345Z,97377.70
2019-05-29T07:43:33.427Z,97382.09
2019-05-29T07:46:00.523Z,97383.58
2019-05-29T07:48:28.059Z,97380.09
2019-05-29T07:51:06.707Z,97379.64
2019-05-29T07:53:22.172Z,97381.95
2019-05-29T07:55:49.248Z,97380.58
2019-05-29T07:58:16.273Z,97380.00
2019-05-29T08:01:06.728Z,97385.63
2019-05-29T08:03:10.918Z,97388.97
2019-05-29T08:05:39.100Z,97388.36
2019-05-29T08:08:05.037Z,97390.34
2019-05-29T08:10:32.182Z,97395.92
2019-05-29T08:12:59.788Z,97395.55
2019-05-29T08:15:27.516Z,97401.15
2019-05-29T08:17:55.012Z,97394.77
2019-05-29T08:20:22.575Z,97402.20
2019-05-29T08:22:50.549Z,97397.14
2019-05-29T08:25:17.557Z,97410.07
2019-05-29T08:27:45.051Z,97409.68
2019-05-29T08:30:12.675Z,97403.39
2019-05-29T08:32:40.809Z,97405.05
2019-05-29T08:35:07.757Z,97406.16
2019-05-29T08:37:35.230Z,97405.16
2019-05-29T08:40:02.743Z,97402.81
2019-05-29T08:42:30.200Z,97403.52
2019-05-29T08:44:57.665Z,97407.66
2019-05-29T08:47:25.172Z,97407.95
2019-05-29T08:49:54.430Z,97407.63
2019-05-29T08:52:20.226Z,97403.81
2019-05-29T08:54:48.097Z,97409.53
2019-05-29T08:57:15.266Z,97405.36
2019-05-29T08:59:44.436Z,97401.19
2019-05-29T09:02:11.055Z,97409.19
2019-05-29T09:04:38.576Z,97411.16
2019-05-29T09:07:06.060Z,97409.84
2019-05-29T09:09:33.713Z,97417.69
2019-05-29T09:12:01.215Z,97414.86
2019-05-29T09:14:28.689Z,97416.56
2019-05-29T09:16:56.305Z,97419.01
2019-05-29T09:19:23.924Z,97416.97
2019-05-29T09:21:51.384Z,97420.75
2019-05-29T09:24:19.407Z,97427.95
2019-05-29T09:26:46.698Z,97422.20
2019-05-29T09:29:16.726Z,97420.10
2019-05-29T09:31:41.471Z,97417.81
2019-05-29T09:34:08.929Z,97412.19
2019-05-29T09:36:36.408Z,97419.20
2019-05-29T09:39:04.256Z,97412.31
2019-05-29T09:41:31.751Z,97408.94
2019-05-29T09:44:00.342Z,97411.90
2019-05-29T09:46:26.351Z,97403.98
2019-05-29T09:48:53.367Z,97415.91
2019-05-29T09:51:21.936Z,97422.29
2019-05-29T09:53:48.227Z,97417.71
2019-05-29T09:56:15.307Z,97422.00
2019-05-29T09:58:42.308Z,97417.05
2019-05-29T10:01:22.338Z,97418.34
2019-05-29T10:03:36.407Z,97413.87
2019-05-29T10:06:04.266Z,97413.38
2019-05-29T10:08:30.522Z,97428.59
2019-05-29T10:11:07.924Z,97418.16
2019-05-29T10:13:24.623Z,97427.84
2019-05-29T10:15:51.722Z,97426.05
2019-05-29T10:18:32.070Z,97426.53
2019-05-29T10:20:46.082Z,97423.91
2019-05-29T10:23:13.201Z,97424.67
2019-05-29T10:25:40.247Z,97421.96
2019-05-29T10:28:07.321Z,97423.41
2019-05-29T10:30:34.340Z,97428.25
2019-05-29T10:33:01.542Z,97426.67
2019-05-29T10:35:28.589Z,97425.03
2019-05-29T10:37:55.738Z,97434.34
2019-05-29T10:40:22.921Z,97429.70
2019-05-29T10:42:51.226Z,97427.41
2019-05-29T10:45:17.440Z,97427.55
2019-05-29T10:47:45.521Z,97425.30
2019-05-29T10:50:12.752Z,97420.13
2019-05-29T10:52:40.439Z,97433.43
2019-05-29T10:55:07.918Z,97423.45
2019-05-29T10:57:35.397Z,97426.48
2019-05-29T11:00:03.622Z,97426.26
2019-05-29T11:02:31.128Z,97429.38
2019-05-29T11:04:59.689Z,97427.48
2019-05-29T11:07:26.114Z,97426.16
2019-05-29T11:09:54.283Z,97433.86
2019-05-29T11:12:21.085Z,97428.50
2019-05-29T11:14:48.631Z,97426.90
2019-05-29T11:17:16.242Z,97431.47
2019-05-29T11:19:43.792Z,97424.30
2019-05-29T11:22:25.725Z,97432.35
2019-05-29T11:24:38.901Z,97432.91
2019-05-29T11:27:06.540Z,97431.45
2019-05-29T11:29:34.480Z,97436.57
2019-05-29T11:32:01.966Z,97443.99
2019-05-29T11:34:29.437Z,97439.41
2019-05-29T11:36:56.961Z,97435.48
2019-05-29T11:39:24.431Z,97445.22
2019-05-29T11:41:52.703Z,97451.28
2019-05-29T11:44:19.558Z,97448.00
2019-05-29T11:46:47.017Z,97448.30
2019-05-29T11:49:14.481Z,97453.91
2019-05-29T11:51:44.407Z,97444.17
2019-05-29T11:54:09.712Z,97450.33
2019-05-29T11:56:37.194Z,97449.25
2019-05-29T11:59:04.871Z,97440.22
2019-05-29T12:01:49.155Z,97443.92
2019-05-29T12:04:22.024Z,97446.08
2019-05-29T12:06:27.495Z,97448.56
2019-05-29T12:08:55.767Z,97450.95
2019-05-29T12:11:22.621Z,97441.43
2019-05-29T12:13:51.586Z,97437.88
2019-05-29T12:16:17.768Z,97443.41
2019-05-29T12:18:45.216Z,97442.42
2019-05-29T12:21:12.702Z,97435.98
2019-05-29T12:23:40.277Z,97435.05
2019-05-29T12:26:21.479Z,97432.83
2019-05-29T12:28:36.201Z,97432.39
2019-05-29T12:31:04.326Z,97434.58
2019-05-29T12:33:31.796Z,97437.20
2019-05-29T12:35:59.305Z,97435.08
2019-05-29T12:38:26.759Z,97441.05
2019-05-29T12:40:55.339Z,97438.11
2019-05-29T12:43:27.132Z,97436.70
2019-05-29T12:45:49.411Z,97432.77
2019-05-29T12:48:17.193Z,97430.59
2019-05-29T12:50:44.496Z,97428.33
2019-05-29T12:53:29.073Z,97431.17
2019-05-29T12:55:39.513Z,97430.57
2019-05-29T12:58:06.976Z,97429.79
2019-05-29T13:00:34.459Z,97433.70
2019-05-29T13:03:03.115Z,97441.36
2019-05-29T13:05:29.522Z,97439.43
2019-05-29T13:07:58.682Z,97440.59
2019-05-29T13:10:30.606Z,97446.39
2019-05-29T13:12:53.272Z,97442.69
2019-05-29T13:15:20.277Z,97440.68
2019-05-29T13:17:47.758Z,97442.55
2019-05-29T13:20:21.801Z,97452.14
2019-05-29T13:22:42.864Z,97456.13
2019-05-29T13:25:12.245Z,97459.03
2019-05-29T13:27:37.894Z,97453.89
2019-05-29T13:30:08.356Z,97451.27
2019-05-29T13:32:34.534Z,97452.33
2019-05-29T13:35:04.228Z,97445.78
2019-05-29T13:37:30.749Z,97456.26
2019-05-29T13:39:58.262Z,97452.34
2019-05-29T13:42:25.782Z,97456.56
2019-05-29T13:44:53.888Z,97457.58
2019-05-29T13:47:21.036Z,97453.83
2019-05-29T13:49:48.517Z,97456.03
2019-05-29T13:52:16.278Z,97462.87
2019-05-29T13:54:43.774Z,97462.53
2019-05-29T13:57:11.254Z,97457.19
2019-05-29T13:59:38.727Z,97460.41
2019-05-29T14:02:07.872Z,97463.08
2019-05-29T14:04:33.946Z,97466.36
2019-05-29T14:07:03.241Z,97464.34
2019-05-29T14:09:29.185Z,97463.57
2019-05-29T14:11:56.647Z,97466.79
2019-05-29T14:14:24.130Z,97468.54
2019-05-29T14:16:51.679Z,97471.08
2019-05-29T14:19:19.201Z,97465.54
2019-05-29T14:21:46.709Z,97466.50
2019-05-29T14:24:28.743Z,97469.18
2019-05-29T14:26:41.734Z,97465.55
2019-05-29T14:29:10.064Z,97466.52
2019-05-29T14:31:36.944Z,97468.48
2019-05-29T14:34:05.145Z,97467.70
2019-05-29T14:36:32.030Z,97462.28
2019-05-29T14:38:59.565Z,97457.04
2019-05-29T14:41:27.079Z,97460.48
2019-05-29T14:43:54.540Z,97463.82
2019-05-29T14:46:22.082Z,97467.70
2019-05-29T14:48:49.546Z,97467.54
2019-05-29T14:51:17.131Z,97469.28
2019-05-29T14:53:44.614Z,97479.53
2019-05-29T14:56:12.681Z,97473.89
2019-05-29T14:58:39.606Z,97486.17
2019-05-29T15:01:07.239Z,97485.14
2019-05-29T15:03:34.733Z,97482.13
2019-05-29T15:06:03.457Z,97483.54
2019-05-29T15:08:30.008Z,97489.28
2019-05-29T15:10:57.451Z,97491.20
2019-05-29T15:13:24.942Z,97495.30
2019-05-29T15:15:57.473Z,97497.77
2019-05-29T15:18:24.960Z,97497.77
2019-05-29T15:20:52.454Z,97498.70
2019-05-29T15:23:19.915Z,97498.34
2019-05-29T15:25:47.382Z,97503.08
2019-05-29T15:28:17.380Z,97499.34
2019-05-29T15:30:42.652Z,97511.91
2019-05-29T15:33:10.899Z,97502.80
2019-05-29T15:35:38.220Z,97493.10
2019-05-29T15:38:06.683Z,97492.84
2019-05-29T15:40:33.302Z,97498.45
2019-05-29T15:43:00.792Z,97501.76
2019-05-29T15:45:28.404Z,97509.98
2019-05-29T15:47:55.925Z,97509.53
2019-05-29T15:50:23.441Z,97514.27
2019-05-29T15:52:51.791Z,97510.73
2019-05-29T15:55:29.607Z,97517.04
2019-05-29T15:57:47.438Z,97517.95
2019-05-29T16:00:15.726Z,97514.71
2019-05-29T16:02:43.046Z,97520.02
2019-05-29T16:05:11.156Z,97520.68
2019-05-29T16:07:38.006Z,97523.03
2019-05-29T16:10:06.370Z,97517.49
2019-05-29T16:12:33.871Z,97519.88
2019-05-29T16:15:01.372Z,97517.91
2019-05-29T16:17:28.874Z,97511.81
2019-05-29T16:19:56.354Z,97516.95
2019-05-29T16:22:23.814Z,97517.96
2019-05-29T16:24:51.359Z,97522.52
2019-05-29T16:27:18.833Z,97520.93
2019-05-29T16:29:46.337Z,97518.30
2019-05-29T16:32:13.814Z,97534.74
2019-05-29T16:34:41.322Z,97536.27
2019-05-29T16:37:08.835Z,97534.92
2019-05-29T16:39:36.295Z,97538.28
2019-05-29T16:42:03.738Z,97539.00
2019-05-29T16:44:31.273Z,97548.42
2019-05-29T16:46:58.957Z,97565.77
2019-05-29T16:49:26.443Z,97569.28
2019-05-29T16:51:54.037Z,97568.87
2019-05-29T16:54:21.509Z,97565.08
2019-05-29T16:56:49.036Z,97560.46
2019-05-29T16:59:17.038Z,97560.78
2019-05-29T17:01:44.295Z,97556.91
2019-05-29T17:04:11.750Z,97566.17
2019-05-29T17:06:39.375Z,97564.88
2019-05-29T17:09:07.914Z,97563.91
2019-05-29T17:11:35.409Z,97568.46
2019-05-29T17:14:03.041Z,97566.27
2019-05-29T17:16:30.588Z,97569.07
2019-05-29T17:18:58.870Z,97575.53
2019-05-29T17:21:27.000Z,97578.59
2019-05-29T17:23:54.508Z,97583.30
2019-05-29T17:26:22.761Z,97589.28
2019-05-29T17:28:49.565Z,97584.16
2019-05-29T17:31:17.058Z,97590.34
2019-05-29T17:33:44.543Z,97590.20
2019-05-29T17:36:12.110Z,97589.52
2019-05-29T17:38:39.907Z,97592.75
2019-05-29T17:41:07.430Z,97593.53
2019-05-29T17:43:34.914Z,97593.91
2019-05-29T17:46:02.434Z,97598.44
2019-05-29T17:48:29.995Z,97596.94
2019-05-29T17:50:57.761Z,97593.48
2019-05-29T17:53:26.184Z,97593.58
2019-05-29T17:55:52.824Z,97598.64
2019-05-29T17:58:21.081Z,97594.61
2019-05-29T18:00:47.953Z,97597.90
2019-05-29T18:03:16.081Z,97596.73
2019-05-29T18:05:42.995Z,97604.62
2019-05-29T18:08:10.634Z,97608.94
2019-05-29T18:10:38.116Z,97610.14
2019-05-29T18:13:06.191Z,97612.66
2019-05-29T18:15:33.754Z,97614.73
2019-05-29T18:18:01.305Z,97616.58
2019-05-29T18:20:28.850Z,97623.48
2019-05-29T18:22:56.367Z,97631.97
2019-05-29T18:25:24.049Z,97637.34
2019-05-29T18:27:51.464Z,97649.35
2019-05-29T18:30:20.192Z,97651.76
2019-05-29T18:32:46.647Z,97667.41
2019-05-29T18:35:14.367Z,97674.25
2019-05-29T18:37:41.882Z,97668.17
2019-05-29T18:40:12.418Z,97672.03
2019-05-29T18:42:36.959Z,97682.13
2019-05-29T18:45:19.645Z,97684.13
2019-05-29T18:47:34.111Z,97688.80
2019-05-29T18:50:01.568Z,97698.48
2019-05-29T18:52:29.945Z,97691.62
2019-05-29T18:54:56.844Z,97685.36
2019-05-29T18:57:25.079Z,97697.17
2019-05-29T18:59:51.913Z,97691.63
2019-05-29T19:02:19.401Z,97691.29
2019-05-29T19:04:46.908Z,97698.69
2019-05-29T19:07:14.396Z,97710.28
2019-05-29T19:09:41.468Z,97712.73
2019-05-29T19:12:08.525Z,97706.37
2019-05-29T19:14:36.032Z,97709.94
2019-05-29T19:17:03.578Z,97719.61
2019-05-29T19:19:32.379Z,97716.01
2019-05-29T19:21:58.623Z,97722.78
2019-05-29T19:24:26.569Z,97732.38
2019-05-29T19:26:53.652Z,97740.94
2019-05-29T19:29:21.257Z,97741.90
2019-05-29T19:31:48.725Z,97753.52
2019-05-29T19:34:16.200Z,97754.42
2019-05-29T19:36:44.040Z,97757.63
2019-05-29T19:39:11.693Z,97766.97
2019-05-29T19:41:39.201Z,97768.94
2019-05-29T19:44:06.722Z,97773.09
2019-05-29T19:46:52.277Z,97776.89
2019-05-29T19:49:01.768Z,97783.20
2019-05-29T19:51:29.243Z,97790.31
2019-05-29T19:53:56.822Z,97794.45
2019-05-29T19:56:25.568Z,97795.64
2019-05-29T19:58:51.970Z,97795.09
2019-05-29T20:01:30.771Z,97794.77
2019-05-29T20:03:47.006Z,97800.70
2019-05-29T20:06:14.500Z,97796.32
2019-05-29T20:08:42.028Z,97799.22
2019-05-29T20:11:09.626Z,97803.69
2019-05-29T20:13:37.986Z,97801.95
2019-05-29T20:16:04.708Z,97806.91
2019-05-29T20:18:32.172Z,97802.47
2019-05-29T20:20:59.730Z,97802.98
2019-05-29T20:23:28.488Z,97813.61
2019-05-29T20:25:54.949Z,97806.52
2019-05-29T20:28:22.540Z,97808.42
2019-05-29T20:30:50.034Z,97811.00
2019-05-29T20:33:17.544Z,97804.38
2019-05-29T20:35:45.045Z,97812.63
2019-05-29T20:38:13.372Z,97811.39
2019-05-29T20:40:41.819Z,97815.68
2019-05-29T20:43:09.500Z,97812.73
2019-05-29T20:45:37.686Z,97812.31
2019-05-29T20:48:05.266Z,97821.64
2019-05-29T20:50:32.887Z,97814.06
2019-05-29T20:53:00.459Z,97812.20
2019-05-29T20:55:28.006Z,97816.78
2019-05-29T20:57:55.637Z,97820.50
2019-05-29T21:00:23.162Z,97833.38
2019-05-29T21:02:50.645Z,97822.97
2019-05-29T21:05:18.235Z,97832.88
2019-05-29T21:07:45.743Z,97829.99
2019-05-29T21:10:13.349Z,97833.84
2019-05-29T21:12:44.077Z,97834.27
2019-05-29T21:15:08.378Z,97836.27
2019-05-29T21:17:36.043Z,97834.39
2019-05-29T21:20:03.560Z,97845.02
2019-05-29T21:22:31.684Z,97836.42
2019-05-29T21:25:05.034Z,97841.72
2019-05-29T21:27:26.866Z,97850.36
2019-05-29T21:29:54.363Z,97846.66
2019-05-29T21:32:21.893Z,97849.81
2019-05-29T21:34:49.344Z,97849.78
2019-05-29T21:37:16.856Z,97847.05
2019-05-29T21:39:44.708Z,97847.88
2019-05-29T21:42:12.220Z,97853.23
2019-05-29T21:44:40.669Z,97853.13
2019-05-29T21:47:07.192Z,97856.35
2019-05-29T21:49:34.627Z,97847.27
2019-05-29T21:52:02.135Z,97846.69
2019-05-29T21:54:29.634Z,97850.09
2019-05-29T21:56:57.138Z,97850.84
2019-05-29T21:59:24.692Z,97851.27
2019-05-29T22:01:52.276Z,97852.42
2019-05-29T22:04:19.731Z,97848.32
2019-05-29T22:06:49.016Z,97855.01
2019-05-29T22:09:16.619Z,97850.91
2019-05-29T22:11:44.149Z,97845.88
2019-05-29T22:14:11.668Z,97856.74
2019-05-29T22:16:39.210Z,97858.44
2019-05-29T22:19:06.642Z,97855.75
2019-05-29T22:21:34.149Z,97861.92
2019-05-29T22:24:01.645Z,97866.98
2019-05-29T22:26:29.144Z,97859.82
2019-05-29T22:28:58.592Z,97875.57
2019-05-29T22:31:24.216Z,97875.57
2019-05-29T22:33:53.409Z,97877.70
2019-05-29T22:36:20.493Z,97875.68
2019-05-29T22:38:48.075Z,97877.16
2019-05-29T22:41:15.597Z,97875.72
2019-05-29T22:43:43.108Z,97871.50
2019-05-29T22:46:10.562Z,97872.73
2019-05-29T22:48:38.021Z,97878.80
2019-05-29T22:51:05.493Z,97887.37
2019-05-29T22:53:33.059Z,97879.72
2019-05-29T22:56:00.531Z,97884.48
2019-05-29T22:58:27.988Z,97888.12
2019-05-29T23:00:55.935Z,97886.62
2019-05-29T23:03:22.990Z,97884.77
2019-05-29T23:05:51.974Z,97881.95
2019-05-29T23:08:18.105Z,97890.20
2019-05-29T23:10:45.575Z,97886.88
2019-05-29T23:13:13.203Z,97893.98
2019-05-29T23:15:41.007Z,97893.98
2019-05-29T23:18:08.475Z,97895.80
2019-05-29T23:20:35.956Z,97899.36
2019-05-29T23:23:03.441Z,97891.27
2019-05-29T23:25:31.069Z,97900.70
2019-05-29T23:27:59.047Z,97894.03
2019-05-29T23:30:26.125Z,97890.63
2019-05-29T23:32:54.765Z,97884.00
2019-05-29T23:35:21.322Z,97887.18
2019-05-29T23:37:48.780Z,97883.86
2019-05-29T23:40:16.262Z,97880.73
2019-05-29T23:42:43.836Z,97877.91
2019-05-29T23:45:11.307Z,97883.75
2019-05-29T23:47:38.802Z,97883.05
2019-05-29T23:50:06.302Z,97879.88
2019-05-29T23:52:33.770Z,97878.27
2019-05-29T23:55:01.927Z,97874.19
2019-05-29T23:57:28.752Z,97877.02
